Egegik Airport Egegik US
ICAO: PAII
IATA:
Category: Medium
Scheduled Services:

Elevation: 92 ft
TransAlt. 18000 ft.

Airport Communications:
ANCHORAGE CNTR:124.8
AWOS 3:135.65
CTAF:122.8

PAII Zoom In..

If you have problems with the map follow the link
https://www.worldairports.se/pages/airport.php?
ICAO=PAII

Runways:

(A) RW 03 length 1500 ft width 75 ft
---- / hdg 32

(B) RW 12 length 5600 ft width 100 ft
---- / hdg 122

(C) RW 21 length 1500 ft width 75 ft
---- / hdg 212

(D) RW 30 length 5600 ft width 100 ft
---- / hdg 302

Location; PAII
Day. 18 / Time. 07.56 Zulu
* Altimeter: 29.58
* Temperature: 08° c. 46.4°f.
* Wind from: 130° Speed 07 kn.
Dewpoint: 06° c.
Visibility: 10 Statute Miles.
Clouds: Scattered 5000 ft.
Clouds: Overcast 7000 ft.

PAII 180756Z AUTO 13007KT 10SM SCT050 OVC070 08/06 A2958 RMK AO2 RAB19E29 SLP018 T00780056 401220061 PNO $


Wind From 130°
Speed 07 kn.

 
 
jpsmedia.com for Web Design worldairports.se 2018   terms of use